Time;durP1;ratioP1;P1;durP2;ratioP2;P2;SDS_P1;SDS_P2;PMS_P1;PMS_P2;Temp;Humidity;BMP_temperature;BMP_pressure;BME280_temperature;BME280_humidity;BME280_pressure;Samples;Min_cycle;Max_cycle;Signal;HPM_P1;HPM_P2
2023/09/04 00:01:15;;;;;;;5.97;3.70;;;;;;;13.85;93.40;102187.06;7394270;19;20382;-78
2023/09/04 00:03:42;;;;;;;6.95;3.70;;;;;;;13.84;93.45;102192.56;7396325;19;20343;-78
2023/09/04 00:06:09;;;;;;;4.30;3.50;;;;;;;13.84;93.70;102196.06;7396835;19;20353;-78
2023/09/04 00:08:35;;;;;;;5.57;3.40;;;;;;;13.83;93.46;102194.41;7391635;19;20364;-78
2023/09/04 00:11:03;;;;;;;4.72;3.10;;;;;;;13.81;93.08;102201.75;7393040;19;20353;-78
2023/09/04 00:13:29;;;;;;;5.63;3.33;;;;;;;13.79;93.47;102197.53;7395482;19;20376;-78
2023/09/04 00:15:56;;;;;;;4.85;3.60;;;;;;;13.78;93.54;102206.53;7396790;19;20365;-78
2023/09/04 00:18:24;;;;;;;4.87;3.70;;;;;;;13.77;93.77;102197.72;7392201;19;20350;-78
2023/09/04 00:20:52;;;;;;;4.30;3.90;;;;;;;13.77;93.72;102195.06;7396754;19;20984;-78
2023/09/04 00:23:19;;;;;;;6.70;3.45;;;;;;;13.75;93.81;102199.72;7397452;19;20691;-78
2023/09/04 00:25:46;;;;;;;5.88;3.70;;;;;;;13.76;93.92;102193.38;7394480;19;20364;-78
2023/09/04 00:28:13;;;;;;;4.63;3.40;;;;;;;13.75;93.68;102204.19;7390859;19;20345;-78
2023/09/04 00:30:41;;;;;;;5.97;3.80;;;;;;;13.72;93.86;102204.50;7392325;19;20748;-78
2023/09/04 00:33:08;;;;;;;4.60;3.80;;;;;;;13.70;94.14;102186.00;7392934;19;20368;-78
2023/09/04 00:35:35;;;;;;;5.47;3.80;;;;;;;13.68;94.32;102179.97;7394165;19;20344;-78
2023/09/04 00:38:02;;;;;;;6.40;4.10;;;;;;;13.66;94.50;102177.50;7395110;19;20360;-78
2023/09/04 00:40:29;;;;;;;5.70;4.10;;;;;;;13.64;94.52;102175.97;7396955;19;21271;-78
2023/09/04 00:42:55;;;;;;;5.78;4.10;;;;;;;13.64;94.81;102175.97;7390951;19;20360;-78
2023/09/04 00:45:22;;;;;;;6.27;4.00;;;;;;;13.63;95.04;102176.97;7396437;19;20397;-78
2023/09/04 00:47:50;;;;;;;5.32;4.28;;;;;;;13.64;95.14;102173.28;7393859;19;20353;-78
2023/09/04 00:50:22;;;;;;;4.68;3.90;;;;;;;13.63;94.98;102190.31;7390442;19;20892;-78
2023/09/04 00:52:57;;;;;;;6.65;3.90;;;;;;;13.61;94.72;102182.44;7397865;19;20693;-78
2023/09/04 00:55:25;;;;;;;5.15;4.10;;;;;;;13.58;94.41;102184.59;7389323;19;20353;-78
2023/09/04 00:57:52;;;;;;;6.47;4.47;;;;;;;13.53;94.24;102193.06;7394302;19;20544;-78
2023/09/04 01:00:25;;;;;;;4.85;4.07;;;;;;;13.51;94.52;102189.72;7396713;19;20372;-78
2023/09/04 01:02:52;;;;;;;6.25;3.90;;;;;;;13.49;94.69;102190.88;7395232;19;20489;-78
2023/09/04 01:05:19;;;;;;;6.13;4.55;;;;;;;13.45;94.84;102193.88;7393398;19;20336;-78
2023/09/04 01:07:47;;;;;;;6.22;4.57;;;;;;;13.44;94.86;102189.50;7390453;19;20710;-78
2023/09/04 01:10:14;;;;;;;6.57;4.40;;;;;;;13.41;94.81;102184.50;7394511;19;20361;-78
2023/09/04 01:12:50;;;;;;;5.07;4.50;;;;;;;13.41;94.99;102183.69;7392572;19;20461;-78
2023/09/04 01:15:17;;;;;;;5.85;4.18;;;;;;;13.40;95.14;102182.00;7390856;19;20455;-78
2023/09/04 01:17:44;;;;;;;5.97;4.35;;;;;;;13.38;95.30;102182.16;7397053;19;20368;-78
2023/09/04 01:20:29;;;;;;;7.00;4.80;;;;;;;13.38;95.63;102173.31;7396110;19;20662;-78
2023/09/04 01:22:56;;;;;;;6.82;5.20;;;;;;;13.35;95.59;102171.81;7395307;19;20947;-78
2023/09/04 01:25:35;;;;;;;6.60;5.45;;;;;;;13.32;95.99;102174.78;7391471;19;20468;-78
2023/09/04 01:28:11;;;;;;;6.45;5.40;;;;;;;13.29;96.28;102167.09;7389993;19;20414;-78
2023/09/04 01:30:55;;;;;;;7.05;6.15;;;;;;;13.26;96.58;102162.06;7392338;19;20352;-78
2023/09/04 01:33:29;;;;;;;6.45;5.85;;;;;;;13.25;96.75;102163.03;7391046;19;20357;-78
2023/09/04 01:36:02;;;;;;;6.95;6.05;;;;;;;13.24;96.83;102170.22;7394524;19;20361;-78
2023/09/04 01:38:29;;;;;;;7.13;6.10;;;;;;;13.22;96.81;102169.53;7394226;19;20381;-78
2023/09/04 01:40:56;;;;;;;8.45;6.53;;;;;;;13.22;97.37;102171.38;7393674;19;20896;-78
2023/09/04 01:43:23;;;;;;;10.68;7.80;;;;;;;13.21;97.65;102167.00;7392055;19;20473;-78
2023/09/04 01:45:50;;;;;;;7.72;6.82;;;;;;;13.21;97.77;102167.84;7390370;19;20353;-78
2023/09/04 01:48:16;;;;;;;9.27;7.43;;;;;;;13.20;97.67;102171.50;7393720;19;20353;-78
2023/09/04 01:50:43;;;;;;;9.98;7.32;;;;;;;13.19;97.80;102164.50;7392746;19;20394;-78
2023/09/04 01:53:10;;;;;;;9.82;7.15;;;;;;;13.18;97.54;102167.34;7389136;19;20436;-78
2023/09/04 01:55:37;;;;;;;8.27;6.63;;;;;;;13.16;97.63;102164.81;7393163;19;20381;-78
2023/09/04 01:58:03;;;;;;;8.52;6.50;;;;;;;13.17;97.71;102165.66;7390455;19;20424;-78
2023/09/04 02:00:30;;;;;;;6.97;6.28;;;;;;;13.16;97.57;102164.00;7389630;19;20364;-78
2023/09/04 02:02:57;;;;;;;8.87;7.17;;;;;;;13.13;97.23;102159.78;7392042;19;20369;-78
2023/09/04 02:05:24;;;;;;;8.98;7.18;;;;;;;13.12;97.47;102160.78;7391616;19;20360;-78
2023/09/04 02:07:51;;;;;;;8.18;7.03;;;;;;;13.11;97.88;102163.59;7391189;19;20339;-78
2023/09/04 02:10:18;;;;;;;8.35;7.35;;;;;;;13.11;97.71;102155.63;7389632;19;20347;-78
2023/09/04 02:12:45;;;;;;;7.53;6.80;;;;;;;13.10;98.05;102159.28;7385281;19;20698;-78
2023/09/04 02:15:12;;;;;;;7.90;7.10;;;;;;;13.10;98.10;102153.97;7394413;19;20345;-78
2023/09/04 02:17:39;;;;;;;9.68;7.00;;;;;;;13.09;98.25;102144.28;7389768;19;20344;-78
2023/09/04 02:20:06;;;;;;;9.32;7.32;;;;;;;13.10;98.25;102151.28;7386319;19;20872;-78
2023/09/04 02:22:34;;;;;;;8.52;6.85;;;;;;;13.09;98.23;102154.94;7391390;19;20353;-78
2023/09/04 02:25:01;;;;;;;9.30;7.30;;;;;;;13.06;98.15;102156.09;7390389;19;20374;-78
2023/09/04 02:27:28;;;;;;;9.77;6.53;;;;;;;13.08;98.38;102145.28;7393049;19;20341;-78
2023/09/04 02:29:54;;;;;;;7.97;6.63;;;;;;;13.05;98.25;102146.44;7388825;19;20354;-78
2023/09/04 02:32:21;;;;;;;7.32;6.60;;;;;;;13.04;98.24;102148.25;7389720;19;20362;-78
2023/09/04 02:34:48;;;;;;;10.77;8.32;;;;;;;13.02;97.93;102144.88;7391398;19;20342;-78
2023/09/04 02:37:15;;;;;;;15.43;11.75;;;;;;;12.99;98.13;102147.06;7389504;19;20423;-78
2023/09/04 02:39:42;;;;;;;9.13;7.43;;;;;;;12.98;98.23;102148.84;7385669;19;20378;-78
2023/09/04 02:42:08;;;;;;;18.35;12.80;;;;;;;12.97;98.24;102155.19;7392967;19;20438;-78
2023/09/04 02:44:36;;;;;;;11.85;8.38;;;;;;;12.97;97.97;102157.84;7392024;19;20734;-78
2023/09/04 02:47:03;;;;;;;12.23;9.43;;;;;;;12.94;97.83;102152.84;7391471;19;20365;-78
2023/09/04 02:49:30;;;;;;;12.32;9.10;;;;;;;12.93;97.88;102151.16;7386820;19;20395;-78
2023/09/04 02:51:56;;;;;;;9.27;7.88;;;;;;;12.90;97.95;102138.16;7390086;19;20480;-78
2023/09/04 02:54:23;;;;;;;8.75;6.95;;;;;;;12.88;97.80;102133.97;7383659;19;20719;-78
2023/09/04 02:56:50;;;;;;;9.73;7.40;;;;;;;12.82;97.59;102141.59;7389538;19;20875;-78
2023/09/04 02:59:17;;;;;;;8.57;6.88;;;;;;;12.80;97.92;102135.59;7392857;19;20411;-78
2023/09/04 03:01:44;;;;;;;8.35;7.00;;;;;;;12.76;97.73;102141.38;7389983;19;20360;-78
2023/09/04 03:04:11;;;;;;;9.32;6.90;;;;;;;12.74;98.22;102138.03;7393839;19;20368;-78
2023/09/04 03:06:39;;;;;;;9.07;7.53;;;;;;;12.74;98.42;102138.03;7386755;19;20368;-78
2023/09/04 03:09:06;;;;;;;8.15;6.50;;;;;;;12.73;98.38;102131.00;7391448;19;20360;-78
2023/09/04 03:11:33;;;;;;;6.37;5.73;;;;;;;12.71;98.20;102133.00;7391018;19;20363;-78
2023/09/04 03:14:00;;;;;;;5.72;5.13;;;;;;;12.66;97.79;102141.44;7386447;19;20375;-78
2023/09/04 03:16:28;;;;;;;6.07;5.45;;;;;;;12.60;97.71;102131.41;7390071;19;20351;-78
2023/09/04 03:18:55;;;;;;;6.70;5.77;;;;;;;12.56;97.50;102138.88;7389653;19;20359;-78
2023/09/04 03:21:22;;;;;;;5.97;5.43;;;;;;;12.52;97.51;102136.69;7386376;19;20423;-78
2023/09/04 03:23:52;;;;;;;6.75;5.60;;;;;;;12.46;97.55;102135.44;7388603;19;20794;-78
2023/09/04 03:26:19;;;;;;;7.88;5.65;;;;;;;12.41;97.65;102143.03;7390299;19;20360;-78
2023/09/04 03:28:46;;;;;;;5.93;5.30;;;;;;;12.38;97.54;102132.72;7390141;19;20380;-78
2023/09/04 03:31:15;;;;;;;8.52;7.15;;;;;;;12.37;97.92;102136.38;7385716;19;20352;-78
2023/09/04 03:33:42;;;;;;;14.30;9.80;;;;;;;12.36;97.82;102129.38;7387739;19;20370;-78
2023/09/04 03:36:11;;;;;;;15.70;10.80;;;;;;;12.33;97.75;102140.31;7390394;19;20316;-78
2023/09/04 03:38:39;;;;;;;15.13;9.55;;;;;;;12.32;97.70;102138.63;7390735;19;20377;-78
2023/09/04 03:41:07;;;;;;;7.85;6.32;;;;;;;12.31;97.79;102131.66;7386336;19;20457;-78
2023/09/04 03:43:34;;;;;;;16.38;9.38;;;;;;;12.30;97.81;102132.63;7391073;19;20435;-78
2023/09/04 03:46:01;;;;;;;11.45;6.88;;;;;;;12.29;97.64;102133.63;7390517;19;20385;-78
2023/09/04 03:48:28;;;;;;;6.95;6.05;;;;;;;12.27;97.25;102123.13;7387424;19;20368;-78
2023/09/04 03:50:59;;;;;;;7.32;5.90;;;;;;;12.24;97.37;102129.59;7388587;19;20370;-79
2023/09/04 03:53:26;;;;;;;6.97;6.00;;;;;;;12.22;97.69;102131.56;7395929;19;20368;-79
2023/09/04 03:55:53;;;;;;;6.90;5.50;;;;;;;12.21;97.54;102129.88;7396600;19;20376;-78
2023/09/04 03:58:20;;;;;;;6.30;5.28;;;;;;;12.22;97.66;102136.06;7394532;19;20710;-78
2023/09/04 04:00:56;;;;;;;6.70;5.35;;;;;;;12.20;97.44;102125.56;7400225;19;20352;-78
2023/09/04 04:03:23;;;;;;;5.20;4.57;;;;;;;12.19;97.27;102134.50;7398315;19;20390;-78
2023/09/04 04:05:50;;;;;;;6.25;5.40;;;;;;;12.17;96.90;102130.34;7393395;19;20753;-78
2023/09/04 04:08:17;;;;;;;6.75;5.40;;;;;;;12.13;96.89;102131.63;7393596;19;20391;-78
2023/09/04 04:10:44;;;;;;;6.97;5.30;;;;;;;12.10;97.00;102134.59;7395548;19;20364;-78
2023/09/04 04:13:11;;;;;;;6.28;5.22;;;;;;;12.08;96.98;102136.56;7395008;19;20374;-78
2023/09/04 04:15:38;;;;;;;5.60;5.00;;;;;;;12.06;96.76;102127.91;7395047;19;20369;-78
2023/09/04 04:18:08;;;;;;;6.35;4.90;;;;;;;12.03;96.77;102129.88;7397940;19;20356;-78
2023/09/04 04:20:36;;;;;;;6.13;5.10;;;;;;;12.04;96.77;102125.38;7399097;19;20364;-78
2023/09/04 04:23:03;;;;;;;7.63;5.60;;;;;;;12.03;96.97;102126.38;7395735;19;20352;-78
2023/09/04 04:25:30;;;;;;;5.65;5.05;;;;;;;12.01;97.00;102133.66;7394596;19;20349;-78
2023/09/04 04:27:56;;;;;;;7.20;5.67;;;;;;;11.99;97.13;102133.81;7395643;19;20912;-78
2023/09/04 04:30:23;;;;;;;7.38;5.90;;;;;;;11.99;97.39;102140.97;7396839;19;20364;-79
2023/09/04 04:32:53;;;;;;;8.48;6.18;;;;;;;12.01;99.36;102145.13;7397415;19;20351;-78
2023/09/04 04:35:20;;;;;;;10.68;7.65;;;;;;;12.14;100.00;102147.44;7396002;19;20360;-78
2023/09/04 04:37:47;;;;;;;8.70;7.80;;;;;;;12.20;99.14;102154.81;7398252;19;21006;-80
2023/09/04 04:40:19;;;;;;;12.35;10.07;;;;;;;12.29;99.55;102165.56;7399953;19;20364;-80
2023/09/04 04:42:46;;;;;;;8.45;7.18;;;;;;;12.33;98.69;102145.66;7393309;19;20730;-80
2023/09/04 04:45:13;;;;;;;125.80;90.70;;;;;;;12.40;99.33;102150.19;7397728;19;20378;-80
2023/09/04 04:47:41;;;;;;;7.63;6.70;;;;;;;12.49;98.46;102144.94;7396852;19;20416;-81
2023/09/04 04:50:09;;;;;;;8.82;6.78;;;;;;;12.53;98.53;102144.50;7394450;19;20848;-80
2023/09/04 04:52:36;;;;;;;7.68;6.88;;;;;;;12.54;97.55;102151.50;7394401;19;20752;-80
2023/09/04 04:55:05;;;;;;;7.03;6.07;;;;;;;12.51;97.46;102143.81;7395835;19;20386;-80
2023/09/04 04:57:33;;;;;;;7.85;6.15;;;;;;;12.53;97.45;102151.66;7396742;19;20360;-80
2023/09/04 05:00:06;;;;;;;7.97;6.78;;;;;;;12.51;97.05;102146.47;7399725;19;20390;-80
2023/09/04 05:02:34;;;;;;;7.82;6.45;;;;;;;12.48;97.22;102145.97;7392471;19;20379;-80
2023/09/04 05:05:01;;;;;;;7.82;6.80;;;;;;;12.47;97.27;102152.25;7396647;19;20335;-80
2023/09/04 05:07:29;;;;;;;7.72;6.50;;;;;;;12.47;97.31;102153.09;7398827;19;20396;-80
2023/09/04 05:09:57;;;;;;;8.13;6.18;;;;;;;12.46;97.26;102155.91;7392769;19;20352;-80
2023/09/04 05:12:24;;;;;;;8.77;6.40;;;;;;;12.45;97.34;102152.41;7399108;19;20875;-80
2023/09/04 05:14:51;;;;;;;9.93;6.73;;;;;;;12.47;97.41;102152.25;7396226;19;20352;-80
2023/09/04 05:17:19;;;;;;;9.98;6.00;;;;;;;12.47;97.46;102150.41;7397771;19;20348;-81
2023/09/04 05:19:47;;;;;;;7.78;6.10;;;;;;;12.49;97.24;102145.78;7397354;19;20693;-80
2023/09/04 05:22:14;;;;;;;7.07;6.32;;;;;;;12.49;97.29;102144.94;7391958;19;20820;-81
2023/09/04 05:24:41;;;;;;;6.07;5.47;;;;;;;12.53;97.13;102143.66;7394233;19;20364;-80
2023/09/04 05:27:08;;;;;;;6.57;5.72;;;;;;;12.54;97.25;102140.84;7397346;19;20360;-80
2023/09/04 05:29:35;;;;;;;7.30;6.10;;;;;;;12.55;97.17;102147.84;7393393;19;20352;-80
2023/09/04 05:32:01;;;;;;;6.78;6.03;;;;;;;12.57;97.20;102153.84;7397954;19;20368;-80
2023/09/04 05:34:28;;;;;;;8.17;5.93;;;;;;;12.64;99.62;102152.28;7395097;19;20360;-80
2023/09/04 05:36:55;;;;;;;10.82;8.25;;;;;;;12.98;100.00;102150.69;7396853;19;20432;-80
2023/09/04 05:39:22;;;;;;;8.20;5.63;;;;;;;13.11;99.62;102160.94;7392577;19;20471;-80
2023/09/04 05:41:49;;;;;;;6.32;5.60;;;;;;;13.19;98.62;102166.34;7394457;19;20372;-80
2023/09/04 05:44:16;;;;;;;5.93;5.33;;;;;;;13.25;97.46;102166.53;7396390;19;20447;-80
2023/09/04 05:46:43;;;;;;;7.50;5.72;;;;;;;13.31;97.18;102169.63;7394870;19;20877;-80
2023/09/04 05:49:09;;;;;;;7.55;5.90;;;;;;;13.36;97.12;102173.47;7392322;19;20344;-80
2023/09/04 05:51:36;;;;;;;7.82;5.90;;;;;;;13.42;97.31;102170.19;7397514;19;20364;-80
2023/09/04 05:54:03;;;;;;;7.38;6.28;;;;;;;13.53;97.26;102176.25;7395234;19;20345;-80
2023/09/04 05:56:30;;;;;;;7.10;6.40;;;;;;;13.61;97.21;102165.63;7396091;19;20353;-81
2023/09/04 05:58:57;;;;;;;7.88;6.32;;;;;;;13.69;97.13;102164.84;7397717;19;20357;-80
2023/09/04 06:01:25;;;;;;;7.20;6.37;;;;;;;13.78;96.98;102164.69;7390798;19;20358;-80
2023/09/04 06:03:51;;;;;;;7.93;6.70;;;;;;;13.87;96.69;102169.06;7392850;19;20351;-80
2023/09/04 06:06:18;;;;;;;7.45;6.10;;;;;;;13.97;96.50;102168.13;7389837;19;20452;-80
2023/09/04 06:08:45;;;;;;;8.50;6.50;;;;;;;14.06;96.33;102159.13;7392968;19;20368;-80
2023/09/04 06:11:12;;;;;;;8.10;6.75;;;;;;;14.15;96.24;102158.16;7394996;19;20370;-80
2023/09/04 06:13:39;;;;;;;8.45;6.30;;;;;;;14.24;96.13;102157.19;7392232;19;20357;-80
2023/09/04 06:16:06;;;;;;;8.25;6.57;;;;;;;14.33;95.72;102158.03;7382953;19;20386;-81
2023/09/04 06:18:34;;;;;;;7.53;6.72;;;;;;;14.43;95.66;102153.41;7394344;19;20373;-81
2023/09/04 06:21:01;;;;;;;14.57;9.30;;;;;;;14.54;95.43;102154.91;7389215;19;20840;-81
2023/09/04 06:23:28;;;;;;;9.27;7.68;;;;;;;14.63;94.89;102153.94;7392790;19;20365;-80
2023/09/04 06:25:55;;;;;;;9.50;7.55;;;;;;;14.74;94.94;102149.28;7393840;19;20385;-80
2023/09/04 06:28:23;;;;;;;8.90;6.43;;;;;;;14.85;94.94;102148.94;7394987;19;20343;-79
2023/09/04 06:30:50;;;;;;;7.90;5.85;;;;;;;14.96;94.34;102148.59;7390837;19;20387;-79
2023/09/04 06:33:17;;;;;;;9.90;7.00;;;;;;;15.07;94.81;102156.28;7391410;19;20711;-78
2023/09/04 06:35:44;;;;;;;7.40;5.88;;;;;;;15.19;94.25;102159.41;7386387;19;20385;-79
2023/09/04 06:38:12;;;;;;;6.00;5.35;;;;;;;15.32;94.05;102158.88;7391481;19;20390;-80
2023/09/04 06:40:39;;;;;;;5.88;5.07;;;;;;;15.46;93.69;102166.22;7388659;19;20365;-80
2023/09/04 06:43:07;;;;;;;5.75;4.93;;;;;;;15.58;93.63;102158.69;7392974;19;20420;-80
2023/09/04 06:45:36;;;;;;;6.75;4.68;;;;;;;15.70;92.86;102159.13;7392904;19;20374;-81
2023/09/04 06:48:07;;;;;;;5.68;4.65;;;;;;;15.85;92.84;102164.59;7392792;19;20431;-80
2023/09/04 06:50:34;;;;;;;6.35;5.00;;;;;;;15.99;92.50;102165.72;7390981;19;20360;-79
2023/09/04 06:53:00;;;;;;;6.75;5.28;;;;;;;16.09;92.63;102167.19;7392413;19;20809;-79
2023/09/04 06:55:28;;;;;;;5.45;4.70;;;;;;;16.24;92.39;102161.91;7391578;19;20371;-80
2023/09/04 06:57:56;;;;;;;6.05;5.30;;;;;;;16.38;92.09;102162.97;7390206;19;20340;-80
2023/09/04 07:00:22;;;;;;;9.30;5.22;;;;;;;16.54;91.63;102161.22;7388639;19;20351;-79
2023/09/04 07:02:50;;;;;;;8.43;6.50;;;;;;;16.64;90.95;102162.66;7390945;19;20355;-80
2023/09/04 07:05:17;;;;;;;5.90;5.30;;;;;;;16.76;90.61;102164.91;7394440;19;20361;-80
2023/09/04 07:07:47;;;;;;;6.68;5.05;;;;;;;16.90;90.83;102164.16;7395507;19;20455;-79
2023/09/04 07:10:14;;;;;;;7.53;4.90;;;;;;;17.01;90.24;102166.38;7389756;19;20367;-80
2023/09/04 07:12:41;;;;;;;7.00;4.88;;;;;;;17.15;89.77;102161.22;7390842;19;21202;-79
2023/09/04 07:15:09;;;;;;;6.25;4.55;;;;;;;17.24;89.11;102160.97;7387579;19;20344;-79
2023/09/04 07:17:35;;;;;;;6.60;4.32;;;;;;;17.40;88.78;102159.13;7390505;19;20365;-80
2023/09/04 07:20:04;;;;;;;8.32;4.30;;;;;;;17.55;88.46;102159.97;7390945;19;20336;-79
2023/09/04 07:22:31;;;;;;;7.03;4.45;;;;;;;17.70;87.78;102159.94;7391193;19;20911;-79
2023/09/04 07:24:58;;;;;;;5.68;4.75;;;;;;;17.83;87.40;102159.31;7390247;19;20352;-79
2023/09/04 07:27:26;;;;;;;8.05;5.78;;;;;;;17.97;86.68;102161.16;7394228;19;20370;-80
2023/09/04 07:29:53;;;;;;;6.40;4.13;;;;;;;18.13;86.02;102163.63;7400904;19;20436;-80
2023/09/04 07:32:21;;;;;;;5.10;3.70;;;;;;;18.28;85.78;102171.66;7398863;19;20336;-79
2023/09/04 07:34:48;;;;;;;7.40;3.85;;;;;;;18.42;83.84;102164.53;7399309;19;20868;-80
2023/09/04 07:37:14;;;;;;;42.83;30.80;;;;;;;18.57;84.10;102167.16;7400642;19;20364;-80
2023/09/04 07:39:41;;;;;;;3.90;2.63;;;;;;;18.70;81.38;102167.31;7397231;19;20352;-80
2023/09/04 07:42:09;;;;;;;5.18;3.67;;;;;;;18.84;80.68;102170.16;7398659;19;20943;-80
2023/09/04 07:44:36;;;;;;;6.20;2.70;;;;;;;18.99;80.19;102157.44;7395769;19;20375;-80
2023/09/04 07:47:03;;;;;;;4.33;2.90;;;;;;;19.14;79.44;102168.94;7399242;19;20359;-80
2023/09/04 07:49:29;;;;;;;4.88;2.65;;;;;;;19.27;77.67;102157.44;7397679;19;20356;-80
2023/09/04 07:51:56;;;;;;;41.35;30.05;;;;;;;19.43;78.25;102158.16;7398531;19;20361;-80
2023/09/04 07:54:23;;;;;;;5.32;2.33;;;;;;;19.55;77.24;102154.72;7397927;19;20884;-80
2023/09/04 07:56:50;;;;;;;77.07;60.03;;;;;;;19.72;76.51;102168.72;7395703;19;20360;-80
2023/09/04 07:59:17;;;;;;;51.45;37.92;;;;;;;19.89;76.55;102173.72;7395613;19;20365;-79
2023/09/04 08:01:44;;;;;;;50.88;38.08;;;;;;;20.05;75.93;102170.69;7392810;19;20355;-79
2023/09/04 08:04:13;;;;;;;11.10;7.63;;;;;;;20.24;75.15;102168.28;7398816;19;20896;-80
2023/09/04 08:06:39;;;;;;;5.63;3.65;;;;;;;20.36;74.23;102172.03;7399392;19;20374;-79
2023/09/04 08:09:06;;;;;;;5.13;3.05;;;;;;;20.48;73.93;102173.06;7398143;19;20368;-79
2023/09/04 08:11:34;;;;;;;9.98;7.13;;;;;;;20.53;71.33;102172.50;7398009;19;20349;-79
2023/09/04 08:14:01;;;;;;;5.70;4.22;;;;;;;20.58;72.14;102174.59;7397528;19;20368;-79
2023/09/04 08:16:28;;;;;;;9.38;6.70;;;;;;;20.70;72.40;102173.78;7396763;19;20368;-80
2023/09/04 08:18:55;;;;;;;7.55;4.82;;;;;;;20.80;70.72;102172.53;7396348;19;20415;-79
2023/09/04 08:21:21;;;;;;;11.10;7.03;;;;;;;20.92;71.13;102170.88;7392868;19;20373;-79
2023/09/04 08:23:48;;;;;;;30.95;21.70;;;;;;;21.05;70.94;102181.66;7394667;19;20344;-80
2023/09/04 08:26:15;;;;;;;3.35;2.33;;;;;;;21.20;69.70;102180.63;7397210;19;20365;-79
2023/09/04 08:28:43;;;;;;;28.95;22.40;;;;;;;21.23;67.41;102182.88;7397270;19;20385;-80
2023/09/04 08:31:10;;;;;;;51.28;36.63;;;;;;;21.37;69.07;102187.22;7393888;19;20880;-80
2023/09/04 08:33:38;;;;;;;4.10;2.47;;;;;;;21.54;68.51;102180.34;7396350;19;20437;-80
2023/09/04 08:36:04;;;;;;;12.00;8.85;;;;;;;21.68;66.80;102174.94;7390066;19;20368;-80
2023/09/04 08:38:31;;;;;;;3.38;2.08;;;;;;;21.79;66.43;102176.97;7383438;19;20364;-80
2023/09/04 08:41:04;;;;;;;57.63;41.50;;;;;;;21.91;65.85;102175.25;7389587;19;20372;-80
2023/09/04 08:43:31;;;;;;;31.23;24.17;;;;;;;22.02;65.36;102167.53;7394494;19;21379;-80
2023/09/04 08:46:05;;;;;;;6.40;2.83;;;;;;;22.10;64.49;102156.44;7392340;19;20411;-79
2023/09/04 08:48:38;;;;;;;25.33;20.55;;;;;;;22.16;64.12;102158.28;7393735;19;20357;-80
2023/09/04 08:51:19;;;;;;;5.10;3.37;;;;;;;22.27;63.42;102156.78;7390397;19;20379;-80
2023/09/04 08:53:49;;;;;;;6.25;2.45;;;;;;;22.30;62.75;102150.97;7391321;19;20385;-79
2023/09/04 08:56:17;;;;;;;62.87;50.70;;;;;;;22.38;63.22;102154.25;7389953;19;20389;-79
2023/09/04 08:58:44;;;;;;;19.67;14.57;;;;;;;22.49;61.38;102149.19;7389735;19;20868;-80
2023/09/04 09:01:14;;;;;;;3.60;2.20;;;;;;;22.62;61.39;102154.47;7393549;19;20372;-79
2023/09/04 09:03:42;;;;;;;14.80;12.70;;;;;;;22.70;61.01;102150.69;7391599;19;20340;-80
2023/09/04 09:06:10;;;;;;;3.58;2.40;;;;;;;22.70;59.24;102156.09;7392272;19;20332;-80
2023/09/04 09:08:37;;;;;;;3.25;1.80;;;;;;;22.77;60.56;102152.28;7389318;19;20332;-79
2023/09/04 09:11:04;;;;;;;21.15;16.25;;;;;;;22.86;59.56;102147.41;7391562;19;20356;-80
2023/09/04 09:13:31;;;;;;;62.03;50.65;;;;;;;22.95;59.14;102142.53;7397351;19;20367;-80
2023/09/04 09:15:58;;;;;;;4.03;2.47;;;;;;;23.05;59.26;102142.91;7391270;19;20386;-79
2023/09/04 09:18:37;;;;;;;3.67;1.70;;;;;;;23.08;58.97;102153.28;7396128;19;20363;-79
2023/09/04 09:21:25;;;;;;;19.95;15.45;;;;;;;23.20;59.04;102142.53;7393775;19;20919;-79
2023/09/04 09:24:18;;;;;;;7.43;5.25;;;;;;;23.32;58.51;102137.22;7396855;19;20703;-79
2023/09/04 09:26:47;;;;;;;3.90;2.63;;;;;;;23.39;57.48;102130.66;7395236;19;20846;-79
2023/09/04 09:29:15;;;;;;;3.28;1.48;;;;;;;23.49;57.68;102130.13;7391181;19;20369;-79
2023/09/04 09:31:45;;;;;;;122.00;104.68;;;;;;;23.60;57.00;102123.97;7398307;19;20357;-79
2023/09/04 09:34:13;;;;;;;64.90;52.70;;;;;;;23.70;56.53;102128.03;7394621;19;20868;-79
2023/09/04 09:36:40;;;;;;;6.77;4.27;;;;;;;23.77;55.80;102113.34;7392058;19;20927;-79
2023/09/04 09:39:08;;;;;;;82.03;71.43;;;;;;;23.83;55.38;102114.31;7394351;19;20379;-79
2023/09/04 09:41:36;;;;;;;108.82;79.00;;;;;;;23.90;54.99;102112.34;7395667;19;20719;-79
2023/09/04 09:44:04;;;;;;;8.77;5.47;;;;;;;23.97;54.83;102102.25;7396717;19;20438;-79
2023/09/04 09:46:37;;;;;;;217.38;160.65;;;;;;;24.02;53.42;102102.38;7393436;19;20340;-79
2023/09/04 09:49:06;;;;;;;9.27;5.60;;;;;;;24.09;53.81;102099.56;7393505;19;20873;-79
2023/09/04 09:51:33;;;;;;;3.17;1.90;;;;;;;24.18;54.17;102108.19;7392584;19;20377;-79
2023/09/04 09:54:00;;;;;;;20.08;15.45;;;;;;;24.23;53.79;102105.63;7395204;19;20466;-79
2023/09/04 09:56:27;;;;;;;28.42;22.17;;;;;;;24.31;53.52;102097.16;7387820;19;20382;-78
2023/09/04 09:58:56;;;;;;;21.45;16.48;;;;;;;24.38;53.13;102102.47;7397831;19;20394;-79
2023/09/04 10:01:24;;;;;;;3.35;1.85;;;;;;;24.48;53.61;102096.47;7393202;19;20352;-78
2023/09/04 10:03:51;;;;;;;2.15;1.48;;;;;;;24.49;51.65;102096.28;7395526;19;20471;-78
2023/09/04 10:06:34;;;;;;;3.38;1.40;;;;;;;24.51;51.65;102096.88;7391613;19;20403;-78
2023/09/04 10:09:06;;;;;;;13.15;8.02;;;;;;;24.61;52.71;102096.28;7394175;19;20367;-80
2023/09/04 10:11:40;;;;;;;42.83;36.20;;;;;;;24.70;51.01;102094.88;7393081;19;20356;-79
2023/09/04 10:14:14;;;;;;;174.25;142.75;;;;;;;24.77;51.57;102098.28;7394385;19;20358;-79
2023/09/04 10:16:46;;;;;;;3.55;2.00;;;;;;;24.80;51.10;102102.41;7391196;19;20369;-79
2023/09/04 10:19:16;;;;;;;56.88;47.13;;;;;;;24.86;51.53;102097.94;7396147;19;20356;-79
2023/09/04 10:21:59;;;;;;;5.27;3.37;;;;;;;24.93;51.74;102094.03;7393287;19;20353;-78
2023/09/04 10:24:38;;;;;;;3.80;1.60;;;;;;;24.90;48.12;102093.69;7393778;19;20428;-79
2023/09/04 10:27:09;;;;;;;25.13;19.13;;;;;;;24.94;50.50;102098.41;7390577;19;20357;-79
2023/09/04 10:29:52;;;;;;;3.47;1.90;;;;;;;24.97;50.63;102097.09;7391893;19;20368;-78
2023/09/04 10:32:19;;;;;;;24.17;17.40;;;;;;;25.06;50.52;102092.16;7387953;19;20892;-78
2023/09/04 10:34:47;;;;;;;135.60;116.10;;;;;;;25.14;50.37;102084.47;7391937;19;20344;-78
2023/09/04 10:37:13;;;;;;;12.30;9.23;;;;;;;25.16;49.30;102068.75;7391310;19;20360;-78
2023/09/04 10:39:41;;;;;;;165.90;144.57;;;;;;;25.26;50.65;102076.31;7392353;19;20360;-78
2023/09/04 10:42:09;;;;;;;4.78;2.58;;;;;;;25.34;48.54;102069.69;7393637;19;20356;-78
2023/09/04 10:44:51;;;;;;;7.50;3.03;;;;;;;25.39;49.58;102070.59;7389964;19;20360;-78
2023/09/04 10:47:19;;;;;;;95.95;77.57;;;;;;;25.48;49.66;102068.34;7389198;19;20884;-78
2023/09/04 10:49:46;;;;;;;22.08;17.27;;;;;;;25.56;49.05;102069.84;7390604;19;20412;-78
2023/09/04 10:52:14;;;;;;;33.80;28.27;;;;;;;25.61;48.27;102065.34;7382616;19;20333;-78
2023/09/04 10:54:42;;;;;;;5.20;3.00;;;;;;;25.72;49.18;102060.09;7392799;19;20352;-78
2023/09/04 10:57:14;;;;;;;4.45;1.80;;;;;;;25.80;48.53;102065.16;7390468;19;20353;-78
2023/09/04 10:59:53;;;;;;;3.40;1.80;;;;;;;25.88;48.52;102067.44;7394006;19;20348;-78
2023/09/04 11:02:34;;;;;;;3.50;1.80;;;;;;;25.78;46.08;102067.28;7390622;19;20349;-78
2023/09/04 11:05:02;;;;;;;3.10;1.50;;;;;;;25.74;47.82;102071.56;7391762;19;20386;-79
2023/09/04 11:07:31;;;;;;;4.90;1.40;;;;;;;25.80;47.85;102059.72;7392405;19;21092;-78
2023/09/04 11:10:02;;;;;;;3.15;1.30;;;;;;;25.90;48.45;102062.63;7389256;19;20353;-78
2023/09/04 11:12:35;;;;;;;2.80;1.40;;;;;;;25.94;48.35;102066.50;7391779;19;20336;-78
2023/09/04 11:15:10;;;;;;;2.53;1.35;;;;;;;26.02;48.31;102062.56;7391151;19;20405;-78
2023/09/04 11:17:40;;;;;;;2.88;1.42;;;;;;;26.04;47.36;102055.00;7391897;19;20448;-78
2023/09/04 11:20:09;;;;;;;5.60;1.70;;;;;;;26.04;47.94;102055.81;7389274;19;20478;-78
2023/09/04 11:22:36;;;;;;;2.97;1.58;;;;;;;26.02;48.26;102047.06;7388214;19;20447;-78
2023/09/04 11:25:03;;;;;;;3.75;1.83;;;;;;;26.02;47.39;102044.34;7391054;19;20353;-78
2023/09/04 11:27:31;;;;;;;3.20;1.52;;;;;;;25.95;47.27;102043.69;7392495;19;20344;-78